createdAt,value
2019-04-29T00:02:30.992Z,7.50
2019-04-29T00:05:00.853Z,7.50
2019-04-29T00:07:30.769Z,7.50
2019-04-29T00:10:00.678Z,7.40
2019-04-29T00:12:30.957Z,7.40
2019-04-29T00:15:20.352Z,7.40
2019-04-29T00:17:54.017Z,7.40
2019-04-29T00:20:39.306Z,7.40
2019-04-29T00:23:09.234Z,7.40
2019-04-29T00:25:39.051Z,7.40
2019-04-29T00:28:12.138Z,7.40
2019-04-29T00:30:42.136Z,7.40
2019-04-29T00:33:12.033Z,7.20
2019-04-29T00:35:42.061Z,7.20
2019-04-29T00:38:32.080Z,7.20
2019-04-29T00:41:28.696Z,7.20
2019-04-29T00:44:04.010Z,7.20
2019-04-29T00:46:33.827Z,7.20
2019-04-29T00:49:03.746Z,7.20
2019-04-29T00:51:33.605Z,7.20
2019-04-29T00:54:12.273Z,7.00
2019-04-29T00:56:42.056Z,7.00
2019-04-29T00:59:12.024Z,6.90
2019-04-29T01:01:42.859Z,6.90
2019-04-29T01:04:12.799Z,6.90
2019-04-29T01:06:42.751Z,7.00
2019-04-29T01:09:14.019Z,7.00
2019-04-29T01:11:43.936Z,7.00
2019-04-29T01:14:13.776Z,7.00
2019-04-29T01:16:43.776Z,6.90
2019-04-29T01:19:13.622Z,7.00
2019-04-29T01:21:43.437Z,7.00
2019-04-29T01:24:13.345Z,6.90
2019-04-29T01:27:04.680Z,6.90
2019-04-29T01:29:34.483Z,6.80
2019-04-29T01:32:05.881Z,6.80
2019-04-29T01:34:42.717Z,6.80
2019-04-29T01:37:12.590Z,6.70
2019-04-29T01:39:48.025Z,6.70
2019-04-29T01:42:22.180Z,6.70
2019-04-29T01:44:51.994Z,6.70
2019-04-29T01:47:21.897Z,6.70
2019-04-29T01:49:51.719Z,6.70
2019-04-29T01:52:21.528Z,6.70
2019-04-29T01:54:51.287Z,6.70
2019-04-29T01:57:21.114Z,6.60
2019-04-29T01:59:50.926Z,6.50
2019-04-29T02:02:20.873Z,6.50
2019-04-29T02:04:50.718Z,6.50
2019-04-29T02:07:20.716Z,6.50
2019-04-29T02:10:02.468Z,6.50
2019-04-29T02:12:32.272Z,6.50
2019-04-29T02:15:02.372Z,6.50
2019-04-29T02:17:32.260Z,6.40
2019-04-29T02:20:02.079Z,6.40
2019-04-29T02:22:51.492Z,6.40
2019-04-29T02:25:29.594Z,6.40
2019-04-29T02:27:59.564Z,6.40
2019-04-29T02:30:39.812Z,6.40
2019-04-29T02:33:09.656Z,6.40
2019-04-29T02:35:39.976Z,6.30
2019-04-29T02:38:15.671Z,6.30
2019-04-29T02:40:53.234Z,6.30
2019-04-29T02:43:27.414Z,6.30
2019-04-29T02:45:57.310Z,6.30
2019-04-29T02:48:30.202Z,6.30
2019-04-29T02:50:58.932Z,6.20
2019-04-29T02:53:28.741Z,6.20
2019-04-29T02:56:00.008Z,6.20
2019-04-29T02:58:39.094Z,6.10
2019-04-29T03:01:34.666Z,6.00
2019-04-29T03:04:29.995Z,6.10
2019-04-29T03:07:00.114Z,6.00
2019-04-29T03:09:31.831Z,6.00
2019-04-29T03:12:02.639Z,6.10
2019-04-29T03:14:33.545Z,6.00
2019-04-29T03:17:03.393Z,6.00
2019-04-29T03:19:36.747Z,6.00
2019-04-29T03:22:07.552Z,5.90
2019-04-29T03:24:37.437Z,5.90
2019-04-29T03:27:08.406Z,5.90
2019-04-29T03:29:38.329Z,5.90
2019-04-29T03:32:08.194Z,5.90
2019-04-29T03:34:38.124Z,5.90
2019-04-29T03:37:08.029Z,5.90
2019-04-29T03:39:38.244Z,5.90
2019-04-29T03:42:08.092Z,5.90
2019-04-29T03:44:37.949Z,5.80
2019-04-29T03:47:09.814Z,5.90
2019-04-29T03:49:39.780Z,5.80
2019-04-29T03:52:10.093Z,5.70
2019-04-29T03:54:40.021Z,5.70
2019-04-29T03:57:11.721Z,5.70
2019-04-29T03:59:41.566Z,5.70
2019-04-29T04:02:33.378Z,5.70
2019-04-29T04:05:28.862Z,5.70
2019-04-29T04:08:12.891Z,5.70
2019-04-29T04:10:42.916Z,5.60
2019-04-29T04:13:12.765Z,5.60
2019-04-29T04:15:42.800Z,5.60
2019-04-29T04:18:24.460Z,5.70
2019-04-29T04:20:54.442Z,5.70
2019-04-29T04:23:24.355Z,5.70
2019-04-29T04:25:54.364Z,5.70
2019-04-29T04:28:24.325Z,5.70
2019-04-29T04:30:54.293Z,5.70
2019-04-29T04:33:24.266Z,5.80
2019-04-29T04:35:54.199Z,5.70
2019-04-29T04:38:24.377Z,5.70
2019-04-29T04:41:04.159Z,5.70
2019-04-29T04:43:34.020Z,5.70
2019-04-29T04:46:04.126Z,5.80
2019-04-29T04:48:33.926Z,5.70
2019-04-29T04:51:03.936Z,5.80
2019-04-29T04:53:33.678Z,5.80
2019-04-29T04:56:03.736Z,5.80
2019-04-29T04:58:33.767Z,5.80
2019-04-29T05:01:03.686Z,5.90
2019-04-29T05:03:33.549Z,5.90
2019-04-29T05:06:03.584Z,6.00
2019-04-29T05:08:33.647Z,6.10
2019-04-29T05:11:03.523Z,6.00
2019-04-29T05:13:33.394Z,6.10
2019-04-29T05:16:03.391Z,6.10
2019-04-29T05:18:33.519Z,6.20
2019-04-29T05:21:03.662Z,6.30
2019-04-29T05:23:34.345Z,6.30
2019-04-29T05:26:04.465Z,6.30
2019-04-29T05:28:34.619Z,6.30
2019-04-29T05:31:04.748Z,6.30
2019-04-29T05:33:34.724Z,6.40
2019-04-29T05:36:27.220Z,6.50
2019-04-29T05:39:31.954Z,6.50
